Deanshanger, United Kingdom
Current Conditions -  °F | °C
As of 7:20 AM on Friday 31 Oct 2014 (Local Time) from EGTC Reporting Station
Haze Haze  
Wind Chill: 14°   Ceiling: Unl
Heat Index: 14°   Visibility: 1.8mi
Dew Point: 14°   Wind: 13mph
Humidity: 100%   Direction: 170°S
Pressure: 30"   Gusts: NA
Location:  52.05°N, 0.89°W
Report Text: EGTC 310720Z 17011KT 3000 BR NSC 14/14 Q1016
Loading
Personal Weather Stations






























Interactive Weather Map
Tropical Storm Tracking
New forecast layout! Learn more

10-Day Weather Forecast

Advertisements
Track Severe Weather on mobile